sensor_id;sensor_type;location;lat;lon;timestamp;P1;durP1;ratioP1;P2;durP2;ratioP2
56999;SDS011;42891;50.006;21.964;2023-02-01T00:01:16;14.70;;;8.52;;
56999;SDS011;42891;50.006;21.964;2023-02-01T00:05:17;15.43;;;8.97;;
56999;SDS011;42891;50.006;21.964;2023-02-01T00:09:17;13.98;;;9.52;;
56999;SDS011;42891;50.006;21.964;2023-02-01T00:13:17;19.15;;;9.48;;
56999;SDS011;42891;50.006;21.964;2023-02-01T00:17:18;17.53;;;9.03;;
56999;SDS011;42891;50.006;21.964;2023-02-01T00:21:19;11.70;;;7.40;;
56999;SDS011;42891;50.006;21.964;2023-02-01T00:25:20;8.68;;;6.45;;
56999;SDS011;42891;50.006;21.964;2023-02-01T00:29:20;8.17;;;5.90;;
56999;SDS011;42891;50.006;21.964;2023-02-01T00:33:21;12.52;;;7.60;;
56999;SDS011;42891;50.006;21.964;2023-02-01T00:37:21;10.37;;;6.20;;
56999;SDS011;42891;50.006;21.964;2023-02-01T00:41:23;7.35;;;4.90;;
56999;SDS011;42891;50.006;21.964;2023-02-01T00:45:23;9.50;;;6.35;;
56999;SDS011;42891;50.006;21.964;2023-02-01T00:49:24;7.30;;;5.43;;
56999;SDS011;42891;50.006;21.964;2023-02-01T00:53:24;8.15;;;5.10;;
56999;SDS011;42891;50.006;21.964;2023-02-01T00:57:24;8.50;;;5.85;;
56999;SDS011;42891;50.006;21.964;2023-02-01T01:01:25;7.45;;;4.90;;
56999;SDS011;42891;50.006;21.964;2023-02-01T01:05:26;7.97;;;5.35;;
56999;SDS011;42891;50.006;21.964;2023-02-01T01:09:34;8.23;;;5.22;;
56999;SDS011;42891;50.006;21.964;2023-02-01T01:13:34;7.80;;;5.43;;
56999;SDS011;42891;50.006;21.964;2023-02-01T01:17:35;7.03;;;5.10;;
56999;SDS011;42891;50.006;21.964;2023-02-01T01:21:35;6.63;;;5.07;;
56999;SDS011;42891;50.006;21.964;2023-02-01T01:25:38;10.93;;;6.77;;
56999;SDS011;42891;50.006;21.964;2023-02-01T01:29:39;8.38;;;5.43;;
56999;SDS011;42891;50.006;21.964;2023-02-01T01:33:39;8.50;;;6.40;;
56999;SDS011;42891;50.006;21.964;2023-02-01T01:37:39;6.65;;;5.13;;
56999;SDS011;42891;50.006;21.964;2023-02-01T01:41:40;7.28;;;4.80;;
56999;SDS011;42891;50.006;21.964;2023-02-01T01:45:40;6.03;;;4.37;;
56999;SDS011;42891;50.006;21.964;2023-02-01T01:49:40;5.90;;;4.68;;
56999;SDS011;42891;50.006;21.964;2023-02-01T01:53:45;6.25;;;4.38;;
56999;SDS011;42891;50.006;21.964;2023-02-01T01:58:02;5.60;;;4.47;;
56999;SDS011;42891;50.006;21.964;2023-02-01T02:02:05;6.25;;;4.50;;
56999;SDS011;42891;50.006;21.964;2023-02-01T02:06:09;7.45;;;4.18;;
56999;SDS011;42891;50.006;21.964;2023-02-01T02:10:17;6.45;;;4.72;;
56999;SDS011;42891;50.006;21.964;2023-02-01T02:14:18;6.50;;;4.07;;
56999;SDS011;42891;50.006;21.964;2023-02-01T02:18:31;6.75;;;4.07;;
56999;SDS011;42891;50.006;21.964;2023-02-01T02:36:17;5.22;;;3.97;;
56999;SDS011;42891;50.006;21.964;2023-02-01T02:40:42;5.53;;;3.88;;
56999;SDS011;42891;50.006;21.964;2023-02-01T02:49:25;6.40;;;4.45;;
56999;SDS011;42891;50.006;21.964;2023-02-01T02:53:38;5.28;;;4.10;;
56999;SDS011;42891;50.006;21.964;2023-02-01T02:58:04;7.47;;;4.82;;
56999;SDS011;42891;50.006;21.964;2023-02-01T03:02:25;5.70;;;3.78;;
56999;SDS011;42891;50.006;21.964;2023-02-01T03:06:46;5.90;;;4.00;;
56999;SDS011;42891;50.006;21.964;2023-02-01T03:10:52;6.93;;;3.92;;
56999;SDS011;42891;50.006;21.964;2023-02-01T03:14:55;7.18;;;4.32;;
56999;SDS011;42891;50.006;21.964;2023-02-01T03:19:03;5.90;;;4.35;;
56999;SDS011;42891;50.006;21.964;2023-02-01T03:23:08;9.25;;;5.00;;
56999;SDS011;42891;50.006;21.964;2023-02-01T03:27:13;8.48;;;4.63;;
56999;SDS011;42891;50.006;21.964;2023-02-01T03:31:20;7.75;;;4.75;;
56999;SDS011;42891;50.006;21.964;2023-02-01T03:35:23;13.63;;;7.30;;
56999;SDS011;42891;50.006;21.964;2023-02-01T03:39:30;10.73;;;5.60;;
56999;SDS011;42891;50.006;21.964;2023-02-01T03:43:48;7.32;;;4.25;;
56999;SDS011;42891;50.006;21.964;2023-02-01T03:47:53;13.00;;;6.00;;
56999;SDS011;42891;50.006;21.964;2023-02-01T03:51:59;7.80;;;4.53;;
56999;SDS011;42891;50.006;21.964;2023-02-01T03:56:00;7.75;;;3.83;;
56999;SDS011;42891;50.006;21.964;2023-02-01T04:00:09;8.80;;;4.30;;
56999;SDS011;42891;50.006;21.964;2023-02-01T04:04:16;11.73;;;4.90;;
56999;SDS011;42891;50.006;21.964;2023-02-01T04:08:20;8.80;;;4.85;;
56999;SDS011;42891;50.006;21.964;2023-02-01T04:12:21;10.40;;;5.22;;
56999;SDS011;42891;50.006;21.964;2023-02-01T04:16:21;14.73;;;8.63;;
56999;SDS011;42891;50.006;21.964;2023-02-01T04:20:21;12.30;;;6.17;;
56999;SDS011;42891;50.006;21.964;2023-02-01T04:24:21;21.60;;;11.80;;
56999;SDS011;42891;50.006;21.964;2023-02-01T04:28:22;13.38;;;6.03;;
56999;SDS011;42891;50.006;21.964;2023-02-01T04:32:22;10.33;;;5.20;;
56999;SDS011;42891;50.006;21.964;2023-02-01T04:36:22;10.02;;;5.18;;
56999;SDS011;42891;50.006;21.964;2023-02-01T04:40:23;14.63;;;5.00;;
56999;SDS011;42891;50.006;21.964;2023-02-01T04:44:23;11.10;;;5.17;;
56999;SDS011;42891;50.006;21.964;2023-02-01T04:48:24;11.13;;;5.35;;
56999;SDS011;42891;50.006;21.964;2023-02-01T04:52:24;14.95;;;5.65;;
56999;SDS011;42891;50.006;21.964;2023-02-01T04:56:25;15.32;;;4.88;;
56999;SDS011;42891;50.006;21.964;2023-02-01T05:00:25;10.77;;;4.23;;
56999;SDS011;42891;50.006;21.964;2023-02-01T05:04:25;16.57;;;4.87;;
56999;SDS011;42891;50.006;21.964;2023-02-01T05:08:26;13.23;;;5.60;;
56999;SDS011;42891;50.006;21.964;2023-02-01T05:12:26;11.10;;;4.07;;
56999;SDS011;42891;50.006;21.964;2023-02-01T05:16:45;16.20;;;4.50;;
56999;SDS011;42891;50.006;21.964;2023-02-01T05:20:45;13.27;;;4.83;;
56999;SDS011;42891;50.006;21.964;2023-02-01T05:24:45;10.43;;;3.93;;
56999;SDS011;42891;50.006;21.964;2023-02-01T05:28:46;9.97;;;3.73;;
56999;SDS011;42891;50.006;21.964;2023-02-01T05:32:49;9.27;;;4.27;;
56999;SDS011;42891;50.006;21.964;2023-02-01T05:36:50;10.77;;;4.00;;
56999;SDS011;42891;50.006;21.964;2023-02-01T05:40:50;6.53;;;3.63;;
56999;SDS011;42891;50.006;21.964;2023-02-01T05:44:50;8.13;;;3.20;;
56999;SDS011;42891;50.006;21.964;2023-02-01T05:48:50;9.43;;;3.50;;
56999;SDS011;42891;50.006;21.964;2023-02-01T05:52:51;15.10;;;3.38;;
56999;SDS011;42891;50.006;21.964;2023-02-01T05:56:51;8.83;;;3.57;;
56999;SDS011;42891;50.006;21.964;2023-02-01T06:00:51;10.30;;;3.50;;
56999;SDS011;42891;50.006;21.964;2023-02-01T06:04:52;10.23;;;3.30;;
56999;SDS011;42891;50.006;21.964;2023-02-01T06:08:52;12.50;;;3.80;;
56999;SDS011;42891;50.006;21.964;2023-02-01T06:12:52;12.67;;;3.27;;
56999;SDS011;42891;50.006;21.964;2023-02-01T06:16:53;11.00;;;3.13;;
56999;SDS011;42891;50.006;21.964;2023-02-01T06:20:55;8.70;;;3.30;;
56999;SDS011;42891;50.006;21.964;2023-02-01T06:24:56;8.88;;;2.92;;
56999;SDS011;42891;50.006;21.964;2023-02-01T06:28:58;9.07;;;3.17;;
56999;SDS011;42891;50.006;21.964;2023-02-01T06:32:59;10.30;;;3.42;;
56999;SDS011;42891;50.006;21.964;2023-02-01T06:36:59;12.02;;;3.47;;
56999;SDS011;42891;50.006;21.964;2023-02-01T06:40:59;8.00;;;3.70;;
56999;SDS011;42891;50.006;21.964;2023-02-01T06:45:00;11.93;;;3.75;;
56999;SDS011;42891;50.006;21.964;2023-02-01T06:49:00;10.23;;;4.57;;
56999;SDS011;42891;50.006;21.964;2023-02-01T07:01:58;11.85;;;4.80;;
56999;SDS011;42891;50.006;21.964;2023-02-01T07:05:58;10.00;;;4.40;;
56999;SDS011;42891;50.006;21.964;2023-02-01T07:09:58;10.10;;;4.10;;
56999;SDS011;42891;50.006;21.964;2023-02-01T07:13:59;9.17;;;3.77;;
56999;SDS011;42891;50.006;21.964;2023-02-01T07:17:59;11.55;;;4.32;;
56999;SDS011;42891;50.006;21.964;2023-02-01T07:22:00;12.98;;;4.38;;
56999;SDS011;42891;50.006;21.964;2023-02-01T07:26:01;13.73;;;4.40;;
56999;SDS011;42891;50.006;21.964;2023-02-01T07:30:03;16.10;;;5.47;;
56999;SDS011;42891;50.006;21.964;2023-02-01T07:34:06;20.80;;;5.75;;
56999;SDS011;42891;50.006;21.964;2023-02-01T07:38:06;15.98;;;5.18;;
56999;SDS011;42891;50.006;21.964;2023-02-01T07:42:06;18.70;;;4.80;;
56999;SDS011;42891;50.006;21.964;2023-02-01T07:46:07;12.73;;;4.97;;
56999;SDS011;42891;50.006;21.964;2023-02-01T07:50:07;15.63;;;5.05;;
56999;SDS011;42891;50.006;21.964;2023-02-01T07:54:08;10.63;;;4.35;;
56999;SDS011;42891;50.006;21.964;2023-02-01T07:58:08;14.23;;;4.53;;
56999;SDS011;42891;50.006;21.964;2023-02-01T08:02:08;14.02;;;4.95;;
56999;SDS011;42891;50.006;21.964;2023-02-01T08:06:09;14.33;;;5.97;;
56999;SDS011;42891;50.006;21.964;2023-02-01T08:10:09;17.73;;;6.65;;
56999;SDS011;42891;50.006;21.964;2023-02-01T08:14:11;17.20;;;6.90;;
56999;SDS011;42891;50.006;21.964;2023-02-01T08:18:11;12.88;;;6.15;;
56999;SDS011;42891;50.006;21.964;2023-02-01T08:22:16;10.10;;;4.85;;
56999;SDS011;42891;50.006;21.964;2023-02-01T08:26:17;16.50;;;5.50;;
56999;SDS011;42891;50.006;21.964;2023-02-01T08:30:19;11.77;;;5.45;;
56999;SDS011;42891;50.006;21.964;2023-02-01T08:34:20;18.42;;;6.45;;
56999;SDS011;42891;50.006;21.964;2023-02-01T08:38:20;10.82;;;5.13;;
56999;SDS011;42891;50.006;21.964;2023-02-01T08:42:20;12.80;;;5.63;;
56999;SDS011;42891;50.006;21.964;2023-02-01T08:46:39;14.73;;;5.25;;
56999;SDS011;42891;50.006;21.964;2023-02-01T08:50:39;16.47;;;5.03;;
56999;SDS011;42891;50.006;21.964;2023-02-01T08:54:39;16.30;;;5.07;;
56999;SDS011;42891;50.006;21.964;2023-02-01T08:58:41;13.73;;;5.32;;
56999;SDS011;42891;50.006;21.964;2023-02-01T09:02:41;15.40;;;4.85;;
56999;SDS011;42891;50.006;21.964;2023-02-01T09:06:42;11.82;;;5.40;;
56999;SDS011;42891;50.006;21.964;2023-02-01T09:10:42;14.83;;;5.60;;
56999;SDS011;42891;50.006;21.964;2023-02-01T09:14:42;14.85;;;5.20;;
56999;SDS011;42891;50.006;21.964;2023-02-01T09:18:43;12.37;;;4.60;;
56999;SDS011;42891;50.006;21.964;2023-02-01T09:22:43;12.25;;;5.38;;
56999;SDS011;42891;50.006;21.964;2023-02-01T09:26:43;11.73;;;4.78;;
56999;SDS011;42891;50.006;21.964;2023-02-01T09:30:44;12.32;;;4.80;;
56999;SDS011;42891;50.006;21.964;2023-02-01T09:34:44;14.25;;;5.55;;
56999;SDS011;42891;50.006;21.964;2023-02-01T09:38:44;11.37;;;4.87;;
56999;SDS011;42891;50.006;21.964;2023-02-01T09:47:25;13.07;;;5.10;;
56999;SDS011;42891;50.006;21.964;2023-02-01T09:51:30;13.93;;;5.28;;
56999;SDS011;42891;50.006;21.964;2023-02-01T09:59:46;13.52;;;5.43;;
56999;SDS011;42891;50.006;21.964;2023-02-01T10:04:07;16.20;;;5.10;;
56999;SDS011;42891;50.006;21.964;2023-02-01T10:08:24;18.33;;;6.07;;
56999;SDS011;42891;50.006;21.964;2023-02-01T10:16:51;17.25;;;8.18;;
56999;SDS011;42891;50.006;21.964;2023-02-01T10:25:26;18.77;;;10.48;;
56999;SDS011;42891;50.006;21.964;2023-02-01T10:29:34;20.45;;;8.80;;
56999;SDS011;42891;50.006;21.964;2023-02-01T10:33:57;16.95;;;6.47;;
56999;SDS011;42891;50.006;21.964;2023-02-01T10:38:01;14.35;;;5.63;;
56999;SDS011;42891;50.006;21.964;2023-02-01T10:42:05;16.88;;;5.45;;
56999;SDS011;42891;50.006;21.964;2023-02-01T10:46:06;11.65;;;5.15;;
56999;SDS011;42891;50.006;21.964;2023-02-01T10:54:11;12.00;;;5.47;;
56999;SDS011;42891;50.006;21.964;2023-02-01T11:02:36;12.00;;;5.10;;
56999;SDS011;42891;50.006;21.964;2023-02-01T11:06:37;16.00;;;4.90;;
56999;SDS011;42891;50.006;21.964;2023-02-01T11:10:43;11.77;;;5.07;;
56999;SDS011;42891;50.006;21.964;2023-02-01T11:14:44;15.45;;;5.00;;
56999;SDS011;42891;50.006;21.964;2023-02-01T11:18:52;8.88;;;3.83;;
56999;SDS011;42891;50.006;21.964;2023-02-01T11:22:55;12.50;;;4.28;;
56999;SDS011;42891;50.006;21.964;2023-02-01T11:26:56;10.32;;;5.00;;
56999;SDS011;42891;50.006;21.964;2023-02-01T11:30:59;10.23;;;4.28;;
56999;SDS011;42891;50.006;21.964;2023-02-01T11:35:03;11.73;;;4.80;;
56999;SDS011;42891;50.006;21.964;2023-02-01T11:43:22;11.73;;;4.35;;
56999;SDS011;42891;50.006;21.964;2023-02-01T11:47:26;8.38;;;4.22;;
56999;SDS011;42891;50.006;21.964;2023-02-01T11:51:37;12.63;;;4.72;;
56999;SDS011;42891;50.006;21.964;2023-02-01T12:00:14;13.27;;;4.97;;
56999;SDS011;42891;50.006;21.964;2023-02-01T12:13:07;11.48;;;4.90;;
56999;SDS011;42891;50.006;21.964;2023-02-01T12:35:29;14.48;;;6.30;;
56999;SDS011;42891;50.006;21.964;2023-02-01T12:39:56;16.98;;;7.78;;
56999;SDS011;42891;50.006;21.964;2023-02-01T12:44:11;15.65;;;7.50;;
56999;SDS011;42891;50.006;21.964;2023-02-01T12:48:38;12.90;;;6.50;;
56999;SDS011;42891;50.006;21.964;2023-02-01T12:52:47;14.00;;;6.63;;
56999;SDS011;42891;50.006;21.964;2023-02-01T12:56:51;14.15;;;6.00;;
56999;SDS011;42891;50.006;21.964;2023-02-01T13:01:03;17.60;;;6.43;;
56999;SDS011;42891;50.006;21.964;2023-02-01T13:05:17;18.50;;;6.43;;
56999;SDS011;42891;50.006;21.964;2023-02-01T13:09:20;13.85;;;7.60;;
56999;SDS011;42891;50.006;21.964;2023-02-01T13:17:31;14.35;;;7.50;;
56999;SDS011;42891;50.006;21.964;2023-02-01T13:21:34;11.73;;;6.07;;
56999;SDS011;42891;50.006;21.964;2023-02-01T13:25:49;14.70;;;6.95;;
56999;SDS011;42891;50.006;21.964;2023-02-01T13:43:27;15.95;;;6.10;;
56999;SDS011;42891;50.006;21.964;2023-02-01T13:47:33;11.70;;;5.15;;
56999;SDS011;42891;50.006;21.964;2023-02-01T13:51:45;11.52;;;5.45;;
56999;SDS011;42891;50.006;21.964;2023-02-01T13:55:55;10.75;;;5.38;;
56999;SDS011;42891;50.006;21.964;2023-02-01T14:04:44;14.80;;;6.05;;
56999;SDS011;42891;50.006;21.964;2023-02-01T14:09:05;11.90;;;5.63;;
56999;SDS011;42891;50.006;21.964;2023-02-01T14:25:33;14.35;;;5.80;;
56999;SDS011;42891;50.006;21.964;2023-02-01T14:29:37;15.93;;;7.03;;
56999;SDS011;42891;50.006;21.964;2023-02-01T14:33:40;17.00;;;7.88;;
56999;SDS011;42891;50.006;21.964;2023-02-01T14:37:42;13.52;;;7.07;;
56999;SDS011;42891;50.006;21.964;2023-02-01T14:41:44;13.93;;;6.53;;
56999;SDS011;42891;50.006;21.964;2023-02-01T14:45:47;11.32;;;7.45;;
56999;SDS011;42891;50.006;21.964;2023-02-01T14:54:09;22.13;;;10.77;;
56999;SDS011;42891;50.006;21.964;2023-02-01T14:58:16;17.27;;;8.80;;
56999;SDS011;42891;50.006;21.964;2023-02-01T15:02:30;34.97;;;20.40;;
56999;SDS011;42891;50.006;21.964;2023-02-01T15:06:54;27.02;;;15.15;;
56999;SDS011;42891;50.006;21.964;2023-02-01T15:10:57;23.13;;;14.07;;
56999;SDS011;42891;50.006;21.964;2023-02-01T15:15:11;14.52;;;7.10;;
56999;SDS011;42891;50.006;21.964;2023-02-01T15:19:12;12.00;;;7.13;;
56999;SDS011;42891;50.006;21.964;2023-02-01T15:23:16;12.32;;;7.55;;
56999;SDS011;42891;50.006;21.964;2023-02-01T15:27:17;11.82;;;6.60;;
56999;SDS011;42891;50.006;21.964;2023-02-01T15:31:30;9.90;;;5.63;;
56999;SDS011;42891;50.006;21.964;2023-02-01T15:44:28;10.00;;;5.55;;
56999;SDS011;42891;50.006;21.964;2023-02-01T15:48:34;14.48;;;7.32;;
56999;SDS011;42891;50.006;21.964;2023-02-01T15:52:39;16.00;;;9.52;;
56999;SDS011;42891;50.006;21.964;2023-02-01T15:56:41;20.83;;;8.65;;
56999;SDS011;42891;50.006;21.964;2023-02-01T16:04:46;33.27;;;16.47;;
56999;SDS011;42891;50.006;21.964;2023-02-01T16:08:51;29.65;;;15.25;;
56999;SDS011;42891;50.006;21.964;2023-02-01T16:12:54;38.75;;;18.30;;
56999;SDS011;42891;50.006;21.964;2023-02-01T16:16:58;37.15;;;18.20;;
56999;SDS011;42891;50.006;21.964;2023-02-01T16:20:58;35.63;;;17.35;;
56999;SDS011;42891;50.006;21.964;2023-02-01T16:24:59;51.27;;;21.73;;
56999;SDS011;42891;50.006;21.964;2023-02-01T16:28:59;41.60;;;20.27;;
56999;SDS011;42891;50.006;21.964;2023-02-01T16:33:03;40.80;;;18.92;;
56999;SDS011;42891;50.006;21.964;2023-02-01T16:37:09;28.20;;;14.50;;
56999;SDS011;42891;50.006;21.964;2023-02-01T16:41:13;36.50;;;16.60;;
56999;SDS011;42891;50.006;21.964;2023-02-01T16:45:14;33.72;;;16.60;;
56999;SDS011;42891;50.006;21.964;2023-02-01T16:49:22;27.23;;;13.52;;
56999;SDS011;42891;50.006;21.964;2023-02-01T16:53:24;19.50;;;10.68;;
56999;SDS011;42891;50.006;21.964;2023-02-01T16:57:27;15.68;;;8.98;;
56999;SDS011;42891;50.006;21.964;2023-02-01T17:01:29;24.02;;;14.73;;
56999;SDS011;42891;50.006;21.964;2023-02-01T17:05:30;18.00;;;10.25;;
56999;SDS011;42891;50.006;21.964;2023-02-01T17:09:31;25.98;;;16.30;;
56999;SDS011;42891;50.006;21.964;2023-02-01T17:13:32;24.00;;;13.40;;
56999;SDS011;42891;50.006;21.964;2023-02-01T17:17:35;29.23;;;16.85;;
56999;SDS011;42891;50.006;21.964;2023-02-01T17:21:39;27.42;;;15.73;;
56999;SDS011;42891;50.006;21.964;2023-02-01T17:25:42;109.90;;;50.65;;
56999;SDS011;42891;50.006;21.964;2023-02-01T17:29:42;60.17;;;33.30;;
56999;SDS011;42891;50.006;21.964;2023-02-01T17:33:44;36.60;;;20.25;;
56999;SDS011;42891;50.006;21.964;2023-02-01T17:37:44;62.42;;;29.88;;
56999;SDS011;42891;50.006;21.964;2023-02-01T17:41:45;38.35;;;19.63;;
56999;SDS011;42891;50.006;21.964;2023-02-01T17:45:57;38.00;;;20.48;;
56999;SDS011;42891;50.006;21.964;2023-02-01T17:50:01;30.70;;;16.83;;
56999;SDS011;42891;50.006;21.964;2023-02-01T17:54:01;38.65;;;20.40;;
56999;SDS011;42891;50.006;21.964;2023-02-01T17:58:02;57.33;;;25.73;;
56999;SDS011;42891;50.006;21.964;2023-02-01T18:02:02;21.83;;;13.70;;
56999;SDS011;42891;50.006;21.964;2023-02-01T18:06:03;21.63;;;13.37;;
56999;SDS011;42891;50.006;21.964;2023-02-01T18:10:03;18.42;;;12.07;;
56999;SDS011;42891;50.006;21.964;2023-02-01T18:14:04;16.92;;;9.50;;
56999;SDS011;42891;50.006;21.964;2023-02-01T18:18:04;14.02;;;7.88;;
56999;SDS011;42891;50.006;21.964;2023-02-01T18:22:05;19.38;;;12.48;;
56999;SDS011;42891;50.006;21.964;2023-02-01T18:26:10;13.70;;;8.75;;
56999;SDS011;42891;50.006;21.964;2023-02-01T18:30:13;15.77;;;9.60;;
56999;SDS011;42891;50.006;21.964;2023-02-01T18:34:14;17.35;;;11.77;;
56999;SDS011;42891;50.006;21.964;2023-02-01T18:38:20;14.05;;;9.38;;
56999;SDS011;42891;50.006;21.964;2023-02-01T18:42:20;19.42;;;12.13;;
56999;SDS011;42891;50.006;21.964;2023-02-01T18:46:20;14.67;;;9.47;;
56999;SDS011;42891;50.006;21.964;2023-02-01T18:50:21;16.98;;;9.55;;
56999;SDS011;42891;50.006;21.964;2023-02-01T18:54:22;17.50;;;9.55;;
56999;SDS011;42891;50.006;21.964;2023-02-01T18:58:23;14.57;;;9.18;;
56999;SDS011;42891;50.006;21.964;2023-02-01T19:02:25;16.27;;;9.30;;
56999;SDS011;42891;50.006;21.964;2023-02-01T19:06:26;18.52;;;9.45;;
56999;SDS011;42891;50.006;21.964;2023-02-01T19:10:26;15.33;;;8.53;;
56999;SDS011;42891;50.006;21.964;2023-02-01T19:14:27;12.73;;;8.30;;
56999;SDS011;42891;50.006;21.964;2023-02-01T19:18:27;16.73;;;9.00;;
56999;SDS011;42891;50.006;21.964;2023-02-01T19:22:27;17.02;;;9.90;;
56999;SDS011;42891;50.006;21.964;2023-02-01T19:26:27;23.43;;;10.97;;
56999;SDS011;42891;50.006;21.964;2023-02-01T19:30:28;123.80;;;52.77;;
56999;SDS011;42891;50.006;21.964;2023-02-01T19:34:28;37.00;;;16.73;;
56999;SDS011;42891;50.006;21.964;2023-02-01T19:38:28;30.30;;;15.88;;
56999;SDS011;42891;50.006;21.964;2023-02-01T19:42:29;28.10;;;16.43;;
56999;SDS011;42891;50.006;21.964;2023-02-01T19:46:29;36.60;;;21.45;;
56999;SDS011;42891;50.006;21.964;2023-02-01T19:50:29;33.23;;;20.00;;
56999;SDS011;42891;50.006;21.964;2023-02-01T19:54:29;30.53;;;20.17;;
56999;SDS011;42891;50.006;21.964;2023-02-01T19:58:30;16.10;;;10.50;;
56999;SDS011;42891;50.006;21.964;2023-02-01T20:02:30;16.40;;;9.73;;
56999;SDS011;42891;50.006;21.964;2023-02-01T20:06:31;30.13;;;18.88;;
56999;SDS011;42891;50.006;21.964;2023-02-01T20:10:33;29.38;;;14.57;;
56999;SDS011;42891;50.006;21.964;2023-02-01T20:14:33;24.55;;;13.10;;
56999;SDS011;42891;50.006;21.964;2023-02-01T20:18:33;20.08;;;12.32;;
56999;SDS011;42891;50.006;21.964;2023-02-01T20:22:36;19.83;;;10.73;;
56999;SDS011;42891;50.006;21.964;2023-02-01T20:26:36;18.30;;;11.90;;
56999;SDS011;42891;50.006;21.964;2023-02-01T20:30:36;22.15;;;12.52;;
56999;SDS011;42891;50.006;21.964;2023-02-01T20:34:37;44.50;;;22.75;;
56999;SDS011;42891;50.006;21.964;2023-02-01T20:38:37;18.45;;;10.38;;
56999;SDS011;42891;50.006;21.964;2023-02-01T20:42:37;28.58;;;14.45;;
56999;SDS011;42891;50.006;21.964;2023-02-01T20:46:38;16.30;;;8.45;;
56999;SDS011;42891;50.006;21.964;2023-02-01T20:50:38;18.83;;;9.07;;
56999;SDS011;42891;50.006;21.964;2023-02-01T20:54:38;18.25;;;10.00;;
56999;SDS011;42891;50.006;21.964;2023-02-01T20:58:39;15.48;;;9.48;;
56999;SDS011;42891;50.006;21.964;2023-02-01T21:02:39;18.88;;;11.23;;
56999;SDS011;42891;50.006;21.964;2023-02-01T21:06:39;26.43;;;13.80;;
56999;SDS011;42891;50.006;21.964;2023-02-01T21:10:40;28.07;;;15.30;;
56999;SDS011;42891;50.006;21.964;2023-02-01T21:14:40;26.63;;;13.32;;
56999;SDS011;42891;50.006;21.964;2023-02-01T21:18:41;22.53;;;12.37;;
56999;SDS011;42891;50.006;21.964;2023-02-01T21:22:41;27.83;;;13.35;;
56999;SDS011;42891;50.006;21.964;2023-02-01T21:26:41;23.17;;;12.95;;
56999;SDS011;42891;50.006;21.964;2023-02-01T21:30:42;27.88;;;13.55;;
56999;SDS011;42891;50.006;21.964;2023-02-01T21:34:43;30.83;;;15.02;;
56999;SDS011;42891;50.006;21.964;2023-02-01T21:38:50;20.73;;;11.57;;
56999;SDS011;42891;50.006;21.964;2023-02-01T21:42:53;23.75;;;11.80;;
56999;SDS011;42891;50.006;21.964;2023-02-01T21:46:53;25.15;;;12.10;;
56999;SDS011;42891;50.006;21.964;2023-02-01T21:50:54;25.55;;;11.85;;
56999;SDS011;42891;50.006;21.964;2023-02-01T21:54:56;18.20;;;10.23;;
56999;SDS011;42891;50.006;21.964;2023-02-01T21:58:58;18.70;;;9.68;;
56999;SDS011;42891;50.006;21.964;2023-02-01T22:02:58;15.57;;;8.77;;
56999;SDS011;42891;50.006;21.964;2023-02-01T22:06:58;21.37;;;10.47;;
56999;SDS011;42891;50.006;21.964;2023-02-01T22:10:59;20.97;;;9.60;;
56999;SDS011;42891;50.006;21.964;2023-02-01T22:14:59;17.73;;;8.70;;
56999;SDS011;42891;50.006;21.964;2023-02-01T22:18:59;13.67;;;7.70;;
56999;SDS011;42891;50.006;21.964;2023-02-01T22:22:59;14.40;;;7.75;;
56999;SDS011;42891;50.006;21.964;2023-02-01T22:27:00;19.02;;;9.05;;
56999;SDS011;42891;50.006;21.964;2023-02-01T22:31:01;13.02;;;7.05;;
56999;SDS011;42891;50.006;21.964;2023-02-01T22:35:02;18.23;;;8.32;;
56999;SDS011;42891;50.006;21.964;2023-02-01T22:39:03;33.20;;;13.85;;
56999;SDS011;42891;50.006;21.964;2023-02-01T22:43:04;81.53;;;28.92;;
56999;SDS011;42891;50.006;21.964;2023-02-01T22:47:05;28.38;;;13.68;;
56999;SDS011;42891;50.006;21.964;2023-02-01T22:51:05;68.72;;;24.13;;
56999;SDS011;42891;50.006;21.964;2023-02-01T22:55:06;76.50;;;28.63;;
56999;SDS011;42891;50.006;21.964;2023-02-01T22:59:08;53.38;;;21.88;;
56999;SDS011;42891;50.006;21.964;2023-02-01T23:03:10;29.35;;;14.13;;
56999;SDS011;42891;50.006;21.964;2023-02-01T23:07:10;82.95;;;34.60;;
56999;SDS011;42891;50.006;21.964;2023-02-01T23:11:11;45.35;;;20.95;;
56999;SDS011;42891;50.006;21.964;2023-02-01T23:15:12;47.28;;;19.67;;
56999;SDS011;42891;50.006;21.964;2023-02-01T23:19:15;56.45;;;22.38;;
56999;SDS011;42891;50.006;21.964;2023-02-01T23:23:17;57.90;;;22.52;;
56999;SDS011;42891;50.006;21.964;2023-02-01T23:27:17;97.23;;;38.33;;
56999;SDS011;42891;50.006;21.964;2023-02-01T23:31:17;91.13;;;35.38;;
56999;SDS011;42891;50.006;21.964;2023-02-01T23:35:18;95.10;;;37.85;;
56999;SDS011;42891;50.006;21.964;2023-02-01T23:39:18;50.77;;;21.37;;
56999;SDS011;42891;50.006;21.964;2023-02-01T23:43:18;25.83;;;11.83;;
56999;SDS011;42891;50.006;21.964;2023-02-01T23:47:37;37.20;;;16.88;;
56999;SDS011;42891;50.006;21.964;2023-02-01T23:51:37;57.13;;;24.13;;
56999;SDS011;42891;50.006;21.964;2023-02-01T23:55:38;47.10;;;18.17;;
56999;SDS011;42891;50.006;21.964;2023-02-01T23:59:38;35.57;;;16.53;;
